YXK weather

Rimouski Airport
Rimouski, Quebec, Canada

Public forecast

Using degrees Celsius for public forecast. Weather courtesy of forecast.io.

METAR (pilot weather report)

Closest report is Mont Joli Airport, 13.9 nm (25.7 km) NE. Retrieved 2019/05/26 16:00 UTC (52 minutes ago):

CYYY 261600Z 18009G15KT 5SM -RA BR OVC016 13/10 A2969 RMK SC8 SLP058 DENSITY ALT 200FT

TAF (pilot weather forecast)

Closest forecast is Mont Joli Airport, 13.9 nm (25.7 km) NE. Retrieved 2019/05/26 14:00 UTC (3 hours ago):

TAF CYYY 261341Z 2614/2702 17012G22KT P6SM -RA SCT012 OVC025 TEMPO 2614/2618 5SM -RA BR BKN012 OVC025 BECMG 2616/2618 24010KT FM261800 24010KT P6SM -RA SCT010 OVC025 TEMPO 2618/2702 5SM -RA BR BKN010 OVC025 PROB30 2618/2620 VRB15G25KT 1SM TSRA BR BKN008 OVC020CB RMK NXT FCST BY 262000Z